Time;durP1;ratioP1;P1;durP2;ratioP2;P2;SDS_P1;SDS_P2;PMS_P1;PMS_P2;Temp;Humidity;BMP_temperature;BMP_pressure;BME280_temperature;BME280_humidity;BME280_pressure;Samples;Min_cycle;Max_cycle;Signal;HPM_P1;HPM_P2
2022/03/20 00:01:02;;;;;;;18.70;13.32;;;;;;;-1.15;100.00;93887.38;2096270;28;20462;-83
2022/03/20 00:02:04;;;;;;;18.98;14.48;;;;;;;-1.13;100.00;93887.06;2089533;28;20461;-82
2022/03/20 00:03:07;;;;;;;19.38;14.07;;;;;;;-1.16;100.00;93877.19;2105633;28;20781;-83
2022/03/20 00:04:08;;;;;;;19.45;14.25;;;;;;;-1.15;100.00;93871.63;2106419;28;20039;-82
2022/03/20 00:05:09;;;;;;;19.55;14.77;;;;;;;-1.13;100.00;93866.06;2090324;28;20405;-83
2022/03/20 00:06:10;;;;;;;17.90;13.02;;;;;;;-1.13;100.00;93869.47;2092851;28;20123;-82
2022/03/20 00:07:11;;;;;;;17.67;14.50;;;;;;;-1.15;100.00;93876.88;2090279;28;20024;-82
2022/03/20 00:08:12;;;;;;;21.08;14.00;;;;;;;-1.00;100.00;93880.00;2089897;28;20107;-82
2022/03/20 00:09:13;;;;;;;20.33;14.25;;;;;;;-0.94;100.00;93882.09;2089816;28;20481;-83
2022/03/20 00:10:15;;;;;;;17.65;14.50;;;;;;;-0.86;100.00;93877.84;2089937;28;20071;-82
2022/03/20 00:11:17;;;;;;;19.38;14.70;;;;;;;-0.73;100.00;93879.41;2095995;28;20029;-82
2022/03/20 00:12:19;;;;;;;19.98;14.35;;;;;;;-0.98;100.00;93873.31;2072338;28;20140;-82
2022/03/20 00:13:23;;;;;;;18.75;15.10;;;;;;;-0.96;100.00;93870.41;2066873;28;20138;-83
2022/03/20 00:14:24;;;;;;;18.70;14.07;;;;;;;-1.10;100.00;93866.19;2082290;28;20433;-83
2022/03/20 00:15:25;;;;;;;18.45;14.48;;;;;;;-1.09;100.00;93870.34;2081551;28;20021;-82
2022/03/20 00:16:29;;;;;;;17.85;13.90;;;;;;;-1.11;100.00;93864.66;2086874;28;20024;-83
2022/03/20 00:17:30;;;;;;;18.02;13.60;;;;;;;-1.04;100.00;93867.53;2082501;28;20021;-83
2022/03/20 00:18:31;;;;;;;20.48;13.60;;;;;;;-0.99;100.00;93863.16;2081637;28;20119;-83
2022/03/20 00:19:32;;;;;;;19.00;14.50;;;;;;;-0.98;100.00;93862.81;2089579;28;20183;-82
2022/03/20 00:20:35;;;;;;;21.63;15.05;;;;;;;-1.13;100.00;93861.59;2076771;28;20891;-82
2022/03/20 00:21:36;;;;;;;18.65;14.63;;;;;;;-1.03;100.00;93863.03;2069924;28;20053;-82
2022/03/20 00:22:38;;;;;;;21.13;15.05;;;;;;;-1.02;100.00;93857.47;2073226;28;20017;-82
2022/03/20 00:23:39;;;;;;;21.17;14.20;;;;;;;-1.10;100.00;93854.91;2073308;28;20026;-82
2022/03/20 00:24:40;;;;;;;18.40;14.30;;;;;;;-1.05;100.00;93859.97;2071277;28;20180;-82
2022/03/20 00:25:44;;;;;;;21.80;15.25;;;;;;;-1.12;100.00;93860.50;2073283;28;20107;-82
2022/03/20 00:26:45;;;;;;;19.90;14.43;;;;;;;-1.12;100.00;93852.63;2081808;28;20033;-82
2022/03/20 00:27:46;;;;;;;19.63;14.63;;;;;;;-1.18;100.00;93861.03;2079951;28;20763;-82
2022/03/20 00:28:46;;;;;;;18.52;14.63;;;;;;;-1.26;100.00;93857.38;2081342;28;20029;-82
2022/03/20 00:29:47;;;;;;;19.35;14.10;;;;;;;-1.33;100.00;93860.53;2089650;28;20029;-82
2022/03/20 00:30:49;;;;;;;19.20;15.98;;;;;;;-1.39;100.00;93874.16;2081258;28;20044;-82
2022/03/20 00:31:50;;;;;;;19.63;14.43;;;;;;;-1.33;100.00;93863.16;2072923;28;20025;-83
2022/03/20 00:32:51;;;;;;;19.20;14.95;;;;;;;-1.29;100.00;93868.53;2072693;28;20029;-83
2022/03/20 00:33:54;;;;;;;19.63;14.43;;;;;;;-1.21;100.00;93862.44;2072974;28;20025;-83
2022/03/20 00:34:59;;;;;;;18.42;14.30;;;;;;;-0.96;100.00;93865.16;2088250;28;20021;-82
2022/03/20 00:36:00;;;;;;;22.27;14.90;;;;;;;-0.97;100.00;93871.47;2091128;28;20025;-82
2022/03/20 00:37:01;;;;;;;18.23;14.23;;;;;;;-1.02;100.00;93872.44;2081315;28;20030;-82
2022/03/20 00:38:04;;;;;;;20.88;14.77;;;;;;;-1.06;100.00;93876.78;2073138;28;20026;-82
2022/03/20 00:39:05;;;;;;;19.75;14.38;;;;;;;-1.30;100.00;93867.00;2088356;28;20032;-82
2022/03/20 00:40:07;;;;;;;17.17;13.88;;;;;;;-1.35;100.00;93872.44;2089540;28;20029;-82
2022/03/20 00:41:08;;;;;;;20.42;14.30;;;;;;;-1.10;100.00;93874.06;2081388;28;20056;-82
2022/03/20 00:42:09;;;;;;;19.63;14.13;;;;;;;-1.17;100.00;93873.06;2081185;28;20021;-83
2022/03/20 00:43:09;;;;;;;17.25;13.93;;;;;;;-1.27;100.00;93877.59;2089440;28;20110;-83
2022/03/20 00:44:10;;;;;;;21.30;15.60;;;;;;;-1.22;100.00;93874.03;2086912;28;20494;-82
2022/03/20 00:45:12;;;;;;;19.35;14.30;;;;;;;-1.30;100.00;93859.88;2081074;28;20026;-83
2022/03/20 00:46:13;;;;;;;22.70;15.63;;;;;;;-1.31;100.00;93858.34;2097215;28;20040;-83
2022/03/20 00:47:14;;;;;;;19.63;14.70;;;;;;;-1.42;100.00;93866.94;2086726;28;20032;-82
2022/03/20 00:48:15;;;;;;;18.23;15.10;;;;;;;-1.53;100.00;93858.72;2080765;28;20044;-83
2022/03/20 00:49:17;;;;;;;20.25;14.45;;;;;;;-1.54;100.00;93865.81;2089434;28;20032;-83
2022/03/20 00:50:17;;;;;;;18.65;14.85;;;;;;;-1.54;100.00;93865.00;2080663;28;20037;-83
2022/03/20 00:51:18;;;;;;;20.98;14.73;;;;;;;-1.52;100.00;93868.84;2079049;28;20021;-83
2022/03/20 00:52:19;;;;;;;18.38;14.43;;;;;;;-1.56;100.00;93859.34;2096680;28;20436;-82
2022/03/20 00:53:20;;;;;;;18.88;14.38;;;;;;;-1.61;100.00;93864.78;2083884;28;20060;-83
2022/03/20 00:54:21;;;;;;;18.30;13.88;;;;;;;-1.56;100.00;93857.47;2081316;28;20028;-83
2022/03/20 00:55:23;;;;;;;20.63;14.13;;;;;;;-1.42;100.00;93862.44;2089358;28;20021;-83
2022/03/20 00:56:23;;;;;;;19.48;14.23;;;;;;;-1.36;100.00;93861.19;2088047;28;20028;-82
2022/03/20 00:57:25;;;;;;;18.75;14.32;;;;;;;-1.27;100.00;93858.50;2081046;28;20453;-83
2022/03/20 00:58:26;;;;;;;17.77;14.63;;;;;;;-1.30;100.00;93859.13;2081169;28;20076;-82
2022/03/20 00:59:27;;;;;;;21.27;14.30;;;;;;;-1.42;100.00;93859.06;2089266;28;20083;-82
2022/03/20 01:00:28;;;;;;;20.92;15.35;;;;;;;-1.49;100.00;93862.22;2077589;28;20057;-82
2022/03/20 01:01:29;;;;;;;18.90;14.85;;;;;;;-1.30;100.00;93861.75;2079571;28;20037;-82
2022/03/20 01:02:39;;;;;;;18.00;14.05;;;;;;;-1.20;100.00;93863.19;2076950;28;20806;-82
2022/03/20 01:03:41;;;;;;;21.10;14.38;;;;;;;-1.32;100.00;93866.53;2075550;28;20116;-83
2022/03/20 01:04:59;;;;;;;16.67;13.90;;;;;;;-1.52;100.00;93868.09;2072534;28;20364;-83
2022/03/20 01:06:00;;;;;;;21.00;14.85;;;;;;;-1.51;100.00;93867.00;2087755;28;20028;-82
2022/03/20 01:07:02;;;;;;;17.10;14.15;;;;;;;-1.55;100.00;93864.25;2083762;28;20414;-83
2022/03/20 01:08:03;;;;;;;18.40;14.05;;;;;;;-1.60;100.00;93864.44;2081722;28;20108;-82
2022/03/20 01:09:05;;;;;;;22.52;15.02;;;;;;;-1.35;100.00;93870.56;2073247;28;20135;-82
2022/03/20 01:10:08;;;;;;;18.05;14.68;;;;;;;-1.30;100.00;93859.13;2080968;28;20044;-82
2022/03/20 01:11:09;;;;;;;19.38;14.38;;;;;;;-1.47;100.00;93862.66;2081052;28;20025;-82
2022/03/20 01:12:10;;;;;;;18.70;14.50;;;;;;;-1.50;100.00;93862.53;2099349;28;20855;-82
2022/03/20 01:13:11;;;;;;;20.10;14.68;;;;;;;-1.54;100.00;93857.16;2101653;28;20028;-82
2022/03/20 01:14:13;;;;;;;21.42;15.63;;;;;;;-1.56;100.00;93856.72;2097700;28;20032;-81
2022/03/20 01:15:15;;;;;;;17.90;14.82;;;;;;;-1.52;100.00;93849.75;2097697;28;20090;-82
2022/03/20 01:16:16;;;;;;;19.30;14.75;;;;;;;-1.66;100.00;93857.88;2095495;28;20103;-82
2022/03/20 01:17:17;;;;;;;20.83;14.57;;;;;;;-1.67;100.00;93858.19;2089096;28;20021;-82
2022/03/20 01:18:19;;;;;;;19.85;14.52;;;;;;;-1.63;100.00;93867.69;2089246;28;20040;-82
2022/03/20 01:19:23;;;;;;;19.15;15.05;;;;;;;-1.57;100.00;93866.44;2096807;28;20476;-82
2022/03/20 01:20:24;;;;;;;18.50;14.68;;;;;;;-1.47;100.00;93859.28;2106179;28;20024;-82
2022/03/20 01:21:25;;;;;;;18.73;14.93;;;;;;;-1.51;100.00;93859.13;2105432;28;20024;-82
2022/03/20 01:22:26;;;;;;;18.02;14.15;;;;;;;-1.52;100.00;93862.84;2089133;28;20128;-82
2022/03/20 01:23:27;;;;;;;19.88;15.38;;;;;;;-1.53;100.00;93862.09;2090448;28;20072;-82
2022/03/20 01:24:29;;;;;;;19.92;15.75;;;;;;;-1.57;100.00;93860.44;2107135;28;20809;-82
2022/03/20 01:25:30;;;;;;;17.88;13.95;;;;;;;-1.61;100.00;93860.28;2105803;28;20020;-81
2022/03/20 01:26:31;;;;;;;20.05;15.00;;;;;;;-1.45;100.00;93870.19;2097383;28;20020;-82
2022/03/20 01:27:33;;;;;;;21.05;14.85;;;;;;;-1.45;100.00;93870.19;2093231;28;20029;-82
2022/03/20 01:28:34;;;;;;;15.70;13.25;;;;;;;-1.53;100.00;93871.81;2097404;28;20028;-82
2022/03/20 01:29:35;;;;;;;18.67;14.93;;;;;;;-1.63;100.00;93869.56;2106881;28;20047;-82
2022/03/20 01:30:38;;;;;;;20.10;15.40;;;;;;;-1.63;100.00;93867.69;2115556;27;20093;-82
2022/03/20 01:31:39;;;;;;;20.73;15.40;;;;;;;-1.63;100.00;93866.94;2093651;28;20488;-82
2022/03/20 01:32:40;;;;;;;22.73;14.15;;;;;;;-1.61;100.00;93864.78;2095898;28;20405;-82
2022/03/20 01:33:41;;;;;;;20.80;15.05;;;;;;;-1.57;100.00;93863.06;2097388;28;20040;-81
2022/03/20 01:34:42;;;;;;;22.25;15.73;;;;;;;-1.60;100.00;93853.19;2097441;28;20074;-82
2022/03/20 01:35:49;;;;;;;20.25;14.57;;;;;;;-1.64;100.00;93858.31;2095721;28;20093;-82
2022/03/20 01:36:50;;;;;;;19.65;15.98;;;;;;;-1.50;100.00;93854.66;2089829;28;20047;-82
2022/03/20 01:37:51;;;;;;;18.95;14.95;;;;;;;-1.55;100.00;93860.88;2088807;28;20052;-83
2022/03/20 01:38:53;;;;;;;19.95;14.40;;;;;;;-1.57;100.00;93857.81;2105580;28;20024;-82
2022/03/20 01:39:54;;;;;;;17.95;14.05;;;;;;;-1.48;100.00;93853.25;2103820;28;20890;-82
2022/03/20 01:40:55;;;;;;;21.02;15.18;;;;;;;-1.47;100.00;93851.41;2107803;28;20061;-83
2022/03/20 01:41:57;;;;;;;18.30;15.25;;;;;;;-1.40;100.00;93857.66;2114020;28;20024;-82
2022/03/20 01:42:58;;;;;;;20.10;15.50;;;;;;;-1.50;100.00;93855.41;2104375;28;20098;-81
2022/03/20 01:44:02;;;;;;;20.63;15.07;;;;;;;-1.51;100.00;93848.66;2096247;28;20627;-82
2022/03/20 01:45:13;;;;;;;19.38;15.10;;;;;;;-1.60;100.00;93858.44;2110054;28;20069;-82
2022/03/20 01:46:14;;;;;;;20.75;14.50;;;;;;;-1.62;100.00;93858.78;2112999;28;20053;-82
2022/03/20 01:47:15;;;;;;;19.77;15.35;;;;;;;-1.59;100.00;93852.88;2113608;28;20027;-82
2022/03/20 01:48:16;;;;;;;17.05;14.43;;;;;;;-1.68;100.00;93854.03;2098162;28;20031;-81
2022/03/20 01:49:17;;;;;;;20.63;14.93;;;;;;;-1.76;100.00;93847.75;2088918;28;20767;-82
2022/03/20 01:50:21;;;;;;;18.75;15.60;;;;;;;-1.67;100.00;93842.44;2088819;28;20071;-82
2022/03/20 01:52:10;;;;;;;18.42;14.52;;;;;;;-1.70;100.00;93843.88;2097493;28;20086;-82
2022/03/20 01:52:45;;;;;;;20.80;14.18;;;;;;;-1.81;100.00;93840.09;2102707;28;20534;-81
2022/03/20 01:53:48;;;;;;;21.08;14.63;;;;;;;-1.79;100.00;93846.56;2097547;28;20020;-82
2022/03/20 01:54:49;;;;;;;20.20;14.20;;;;;;;-1.78;100.00;93844.69;2097612;28;20559;-82
2022/03/20 01:55:50;;;;;;;18.88;14.43;;;;;;;-1.63;100.00;93843.34;2097356;28;20436;-81
2022/03/20 01:56:53;;;;;;;21.35;15.27;;;;;;;-1.74;100.00;93844.84;2097408;28;20028;-81
2022/03/20 01:57:56;;;;;;;19.17;15.13;;;;;;;-1.74;100.00;93855.31;2099613;28;20059;-82
2022/03/20 01:59:01;;;;;;;19.30;14.68;;;;;;;-1.60;100.00;93853.19;2099171;28;20429;-82
2022/03/20 02:00:04;;;;;;;19.75;14.40;;;;;;;-1.59;100.00;93846.88;2097247;28;20461;-82
2022/03/20 02:01:05;;;;;;;19.40;14.60;;;;;;;-1.63;100.00;93849.34;2110084;28;20084;-82
2022/03/20 02:02:06;;;;;;;18.05;14.75;;;;;;;-1.65;100.00;93853.41;2096260;28;20148;-81
2022/03/20 02:03:07;;;;;;;22.83;15.93;;;;;;;-1.42;100.00;93853.81;2087751;28;20051;-82
2022/03/20 02:04:12;;;;;;;18.08;14.05;;;;;;;-1.50;100.00;93858.03;2113818;28;20031;-82
2022/03/20 02:05:13;;;;;;;20.75;15.07;;;;;;;-1.56;100.00;93854.84;2099776;28;20032;-83
2022/03/20 02:06:15;;;;;;;19.17;15.52;;;;;;;-1.54;100.00;93852.69;2097143;28;20347;-82
2022/03/20 02:07:16;;;;;;;19.65;15.27;;;;;;;-1.60;100.00;93859.22;2089051;28;20032;-81
2022/03/20 02:08:17;;;;;;;19.98;14.65;;;;;;;-1.63;100.00;93857.22;2097298;28;20025;-82
2022/03/20 02:09:18;;;;;;;23.15;16.42;;;;;;;-1.63;100.00;93857.22;2104296;28;20124;-82
2022/03/20 02:12:07;;;;;;;20.90;14.75;;;;;;;-1.56;100.00;93851.47;2121670;27;20195;-81
2022/03/20 02:13:08;;;;;;;20.45;15.20;;;;;;;-1.44;100.00;93846.28;2104358;28;20082;-80
2022/03/20 02:14:10;;;;;;;23.00;16.30;;;;;;;-1.42;100.00;93849.34;2086190;28;20021;-81
2022/03/20 02:15:13;;;;;;;21.00;15.55;;;;;;;-1.47;100.00;93854.03;2095867;28;20024;-81
2022/03/20 02:16:14;;;;;;;21.80;15.35;;;;;;;-1.57;100.00;93848.09;2092873;28;20068;-80
2022/03/20 02:17:29;;;;;;;22.20;15.98;;;;;;;-1.67;100.00;93848.47;2090679;28;20452;-80
2022/03/20 02:18:31;;;;;;;19.58;15.50;;;;;;;-1.67;100.00;93845.06;2098168;28;20033;-80
2022/03/20 02:19:34;;;;;;;21.88;16.58;;;;;;;-1.63;100.00;93846.72;2093422;28;20075;-81
2022/03/20 02:20:35;;;;;;;21.05;15.90;;;;;;;-1.62;100.00;93847.53;2101166;28;20020;-80
2022/03/20 02:21:40;;;;;;;22.02;15.50;;;;;;;-1.67;100.00;93845.84;2093101;28;20461;-81
2022/03/20 02:22:43;;;;;;;18.88;15.82;;;;;;;-1.60;100.00;93842.72;2082709;28;20025;-80
2022/03/20 02:23:44;;;;;;;23.10;15.48;;;;;;;-1.58;100.00;93845.78;2096476;28;20059;-80
2022/03/20 02:24:48;;;;;;;21.45;15.60;;;;;;;-1.61;100.00;93838.56;2089959;28;20121;-81
2022/03/20 02:25:51;;;;;;;26.77;16.50;;;;;;;-1.60;100.00;93843.47;2099568;28;21013;-81
2022/03/20 02:27:08;;;;;;;20.90;15.32;;;;;;;-1.52;100.00;93842.66;2088089;28;20048;-81
2022/03/20 02:28:09;;;;;;;20.05;14.43;;;;;;;-1.48;100.00;93840.16;2091677;28;20053;-80
2022/03/20 02:29:10;;;;;;;19.88;15.70;;;;;;;-1.45;100.00;93834.25;2087148;28;20056;-81
2022/03/20 02:30:15;;;;;;;21.08;15.73;;;;;;;-1.52;100.00;93831.41;2096151;28;20025;-81
2022/03/20 02:31:16;;;;;;;19.42;14.98;;;;;;;-1.42;100.00;93832.84;2082508;28;20152;-80
2022/03/20 02:32:19;;;;;;;22.48;16.27;;;;;;;-1.54;100.00;93838.81;2087278;28;20017;-81
2022/03/20 02:33:23;;;;;;;19.17;15.57;;;;;;;-1.63;100.00;93849.34;2112588;28;20022;-80
2022/03/20 02:34:26;;;;;;;21.48;15.60;;;;;;;-1.51;100.00;93840.78;2095918;28;20534;-81
2022/03/20 02:35:27;;;;;;;20.05;16.00;;;;;;;-1.48;100.00;93847.25;2083357;28;20021;-81
2022/03/20 02:36:28;;;;;;;22.52;16.15;;;;;;;-1.45;100.00;93841.34;2095382;28;20378;-80
2022/03/20 02:37:29;;;;;;;22.05;16.02;;;;;;;-1.52;100.00;93845.28;2098744;28;20024;-81
2022/03/20 02:38:39;;;;;;;23.30;16.13;;;;;;;-1.49;100.00;93837.84;2104427;28;20023;-81
2022/03/20 02:39:40;;;;;;;19.42;15.65;;;;;;;-1.51;100.00;93846.03;2102105;28;20112;-80
2022/03/20 02:40:42;;;;;;;19.38;15.45;;;;;;;-1.45;100.00;93836.88;2098188;28;20113;-81
2022/03/20 02:41:44;;;;;;;20.92;15.50;;;;;;;-1.42;100.00;93841.47;2087733;28;20021;-81
2022/03/20 02:42:48;;;;;;;20.58;15.05;;;;;;;-1.41;100.00;93837.00;2084387;28;20023;-81
2022/03/20 02:43:50;;;;;;;20.48;15.73;;;;;;;-1.41;100.00;93834.38;2091110;28;20021;-81
2022/03/20 02:45:05;;;;;;;21.33;16.08;;;;;;;-1.24;100.00;93842.09;2087647;28;20106;-82
2022/03/20 02:46:06;;;;;;;21.67;15.77;;;;;;;-1.36;100.00;93840.22;2087397;28;20024;-81
2022/03/20 02:47:07;;;;;;;20.00;15.85;;;;;;;-1.40;100.00;93836.69;2087700;28;20108;-80
2022/03/20 02:48:08;;;;;;;22.75;17.27;;;;;;;-1.43;100.00;93831.31;2094745;28;20095;-81
2022/03/20 02:49:10;;;;;;;20.00;16.40;;;;;;;-1.40;100.00;93839.31;2098090;28;20036;-81
2022/03/20 02:50:24;;;;;;;20.95;16.48;;;;;;;-1.40;100.00;93841.19;2088103;28;20051;-81
2022/03/20 02:51:25;;;;;;;18.90;14.95;;;;;;;-1.31;100.00;93837.38;2097533;28;20646;-80
2022/03/20 02:52:28;;;;;;;19.95;15.10;;;;;;;-1.27;100.00;93842.75;2084873;28;20029;-81
2022/03/20 02:53:29;;;;;;;21.15;16.30;;;;;;;-1.32;100.00;93835.84;2104327;28;20020;-81
2022/03/20 02:54:31;;;;;;;19.92;16.05;;;;;;;-1.32;100.00;93841.09;2096010;28;20027;-81
2022/03/20 02:55:37;;;;;;;23.00;15.77;;;;;;;-1.29;100.00;93840.44;2079882;28;20033;-81
2022/03/20 02:56:38;;;;;;;22.60;15.18;;;;;;;-1.25;100.00;93845.03;2079898;28;20021;-81
2022/03/20 02:57:40;;;;;;;19.20;15.68;;;;;;;-1.30;100.00;93836.28;2075613;28;20030;-81
2022/03/20 02:58:41;;;;;;;22.38;16.23;;;;;;;-1.28;100.00;93835.94;2079439;28;20530;-81
2022/03/20 02:59:42;;;;;;;22.58;16.63;;;;;;;-1.34;100.00;93837.25;2094137;28;20083;-81
2022/03/20 03:00:43;;;;;;;21.05;16.00;;;;;;;-1.35;100.00;93831.25;2094975;28;20059;-81
2022/03/20 03:01:44;;;;;;;19.45;15.55;;;;;;;-1.31;100.00;93840.00;2079781;28;20021;-81
2022/03/20 03:02:45;;;;;;;21.80;16.45;;;;;;;-1.32;100.00;93840.31;2079391;28;20025;-81
2022/03/20 03:03:46;;;;;;;20.48;16.33;;;;;;;-1.29;100.00;93835.19;2083911;28;20021;-81
2022/03/20 03:04:47;;;;;;;23.92;16.42;;;;;;;-1.25;100.00;93835.31;2088136;28;20067;-81
2022/03/20 03:05:49;;;;;;;27.83;16.50;;;;;;;-1.27;100.00;93835.66;2085868;28;20071;-81
2022/03/20 03:06:49;;;;;;;24.08;16.65;;;;;;;-1.27;100.00;93835.66;2083445;28;20073;-81
2022/03/20 03:11:53;;;;;;;19.58;15.60;;;;;;;-0.85;100.00;93847.88;2095458;28;20456;-81
2022/03/20 03:12:54;;;;;;;21.15;16.10;;;;;;;-1.02;100.00;93843.56;2092801;28;20445;-80
2022/03/20 03:13:55;;;;;;;23.40;17.23;;;;;;;-1.08;100.00;93847.50;2103510;28;20034;-81
2022/03/20 03:16:16;;;;;;;20.92;15.85;;;;;;;-1.14;100.00;93843.53;2084021;28;20022;-81
2022/03/20 03:17:27;;;;;;;24.42;16.80;;;;;;;-1.05;100.00;93852.88;2082061;28;20040;-81
2022/03/20 03:18:29;;;;;;;21.90;15.65;;;;;;;-1.14;100.00;93848.78;2083874;28;20022;-80
2022/03/20 03:19:30;;;;;;;20.42;16.40;;;;;;;-1.16;100.00;93849.13;2090733;28;20029;-81
2022/03/20 03:20:32;;;;;;;22.60;16.63;;;;;;;-1.21;100.00;93849.31;2088841;28;20437;-80
2022/03/20 03:21:33;;;;;;;18.40;15.10;;;;;;;-1.23;100.00;93855.97;2079139;28;20858;-80
2022/03/20 03:22:34;;;;;;;21.85;15.68;;;;;;;-1.29;100.00;93850.94;2074277;28;20032;-81
2022/03/20 03:23:38;;;;;;;21.02;15.68;;;;;;;-1.28;100.00;93846.44;2069797;28;20022;-80
2022/03/20 03:24:39;;;;;;;19.55;16.08;;;;;;;-1.27;100.00;93851.38;2081130;28;20484;-80
2022/03/20 03:25:41;;;;;;;21.83;15.73;;;;;;;-1.18;100.00;93853.16;2072671;28;20514;-81
2022/03/20 03:26:42;;;;;;;18.65;15.68;;;;;;;-1.18;100.00;93853.16;2073868;28;20058;-80
2022/03/20 03:27:44;;;;;;;20.80;16.23;;;;;;;-1.19;100.00;93849.75;2069813;28;20018;-81
2022/03/20 03:28:45;;;;;;;23.88;16.13;;;;;;;-0.94;100.00;93855.84;2077182;28;20025;-81
2022/03/20 03:29:45;;;;;;;22.45;16.30;;;;;;;-1.03;100.00;93858.56;2074155;28;20073;-81
2022/03/20 03:30:48;;;;;;;22.50;17.23;;;;;;;-1.08;100.00;93850.91;2080774;28;20028;-81
2022/03/20 03:31:49;;;;;;;20.95;16.55;;;;;;;-1.06;100.00;93848.69;2076215;28;20060;-80
2022/03/20 03:32:50;;;;;;;20.05;16.13;;;;;;;-0.94;100.00;93857.69;2083821;28;20029;-80
2022/03/20 03:36:32;;;;;;;19.20;14.43;;;;;;;-0.93;100.00;93859.22;2075787;28;20091;-80
2022/03/20 03:37:33;;;;;;;19.27;15.63;;;;;;;-0.94;100.00;93855.09;2075288;28;20119;-80
2022/03/20 03:38:34;;;;;;;22.85;16.17;;;;;;;-1.09;100.00;93854.59;2065551;28;20034;-81
2022/03/20 03:39:35;;;;;;;23.95;16.60;;;;;;;-1.09;100.00;93857.22;2065326;28;20026;-81
2022/03/20 03:40:46;;;;;;;22.23;15.77;;;;;;;-1.08;100.00;93861.38;2073541;28;20033;-81
2022/03/20 03:41:47;;;;;;;23.10;15.80;;;;;;;-1.03;100.00;93855.94;2082817;28;20022;-81
2022/03/20 03:42:48;;;;;;;21.40;16.48;;;;;;;-1.03;100.00;93857.78;2078331;28;20043;-81
2022/03/20 03:43:49;;;;;;;22.33;16.63;;;;;;;-1.02;100.00;93860.06;2071470;28;20446;-81
2022/03/20 03:44:51;;;;;;;19.05;15.43;;;;;;;-1.01;100.00;93860.84;2081810;28;20022;-81
2022/03/20 03:45:56;;;;;;;25.52;17.38;;;;;;;-0.95;100.00;93858.81;2076165;28;20100;-81
2022/03/20 03:46:57;;;;;;;22.20;16.45;;;;;;;-1.06;100.00;93859.19;2074543;28;20033;-81
2022/03/20 03:47:59;;;;;;;18.50;15.88;;;;;;;-1.02;100.00;93854.84;2082764;28;20025;-80
2022/03/20 03:49:00;;;;;;;23.90;17.42;;;;;;;-1.14;100.00;93859.28;2081542;28;20501;-81
2022/03/20 03:50:01;;;;;;;22.60;17.48;;;;;;;-1.22;100.00;93858.28;2080459;28;20059;-81
2022/03/20 03:51:03;;;;;;;22.38;15.98;;;;;;;-1.14;100.00;93865.31;2073643;28;20022;-81
2022/03/20 03:52:05;;;;;;;22.33;16.70;;;;;;;-1.11;100.00;93862.03;2073492;28;20498;-81
2022/03/20 03:53:10;;;;;;;22.17;16.80;;;;;;;-1.09;100.00;93859.84;2072795;28;20030;-81
2022/03/20 03:54:12;;;;;;;26.25;18.75;;;;;;;-1.11;100.00;93862.03;2061082;28;20031;-81
2022/03/20 03:55:14;;;;;;;22.80;17.65;;;;;;;-0.82;100.00;93868.22;2065557;28;20121;-81
2022/03/20 03:56:15;;;;;;;24.55;17.27;;;;;;;-0.90;100.00;93869.84;2077339;28;20485;-80
2022/03/20 03:57:19;;;;;;;25.73;18.27;;;;;;;-0.92;100.00;93873.88;2073513;28;20030;-80
2022/03/20 03:58:20;;;;;;;25.33;18.25;;;;;;;-1.04;100.00;93862.28;2079726;28;20482;-80
2022/03/20 03:59:21;;;;;;;24.42;18.58;;;;;;;-0.95;100.00;93861.44;2087396;28;20079;-80
2022/03/20 04:00:24;;;;;;;24.35;18.00;;;;;;;-1.02;100.00;93867.19;2083457;28;20053;-80
2022/03/20 04:01:25;;;;;;;24.77;19.25;;;;;;;-0.99;100.00;93869.16;2088127;28;20050;-80
2022/03/20 04:02:26;;;;;;;24.45;18.33;;;;;;;-0.92;100.00;93869.41;2075038;28;20037;-80
2022/03/20 04:03:27;;;;;;;23.67;17.60;;;;;;;-0.88;100.00;93866.88;2076968;28;20033;-80
2022/03/20 04:04:28;;;;;;;22.55;18.20;;;;;;;-0.98;100.00;93870.69;2076804;28;20025;-80
2022/03/20 04:05:29;;;;;;;25.45;18.50;;;;;;;-0.98;100.00;93868.06;2067832;28;20418;-80
2022/03/20 04:06:31;;;;;;;21.48;17.80;;;;;;;-1.05;100.00;93865.22;2080783;28;20025;-80
2022/03/20 04:07:34;;;;;;;27.15;18.80;;;;;;;-1.05;100.00;93868.63;2076754;28;20026;-81
2022/03/20 04:08:35;;;;;;;21.92;17.83;;;;;;;-1.13;100.00;93861.59;2067189;28;20069;-80
2022/03/20 04:09:37;;;;;;;25.83;18.55;;;;;;;-1.06;100.00;93869.69;2075369;28;20060;-81
2022/03/20 04:10:38;;;;;;;27.52;19.38;;;;;;;-1.04;100.00;93872.00;2081163;28;20509;-81
2022/03/20 04:11:46;;;;;;;28.13;19.55;;;;;;;-1.11;100.00;93874.38;2072911;28;20121;-81
2022/03/20 04:12:47;;;;;;;24.48;18.95;;;;;;;-1.05;100.00;93876.47;2082132;28;20080;-81
2022/03/20 04:13:48;;;;;;;24.40;19.30;;;;;;;-1.08;100.00;93871.88;2081638;28;20025;-81
2022/03/20 04:14:49;;;;;;;30.48;21.13;;;;;;;-1.06;100.00;93868.91;2076078;28;20049;-81
2022/03/20 04:15:52;;;;;;;26.27;20.58;;;;;;;-1.04;100.00;93875.38;2081211;28;20974;-80
2022/03/20 04:16:54;;;;;;;23.77;19.42;;;;;;;-1.05;100.00;93876.47;2070111;28;20507;-80
2022/03/20 04:17:57;;;;;;;30.70;21.15;;;;;;;-1.08;100.00;93881.59;2075097;28;20026;-80
2022/03/20 04:18:58;;;;;;;29.60;20.67;;;;;;;-1.03;100.00;93878.78;2081638;28;20410;-80
2022/03/20 04:19:59;;;;;;;26.83;19.80;;;;;;;-0.94;100.00;93878.69;2070491;28;20026;-80
2022/03/20 04:21:00;;;;;;;29.88;21.80;;;;;;;-0.92;100.00;93882.53;2060810;28;20042;-81
2022/03/20 04:22:03;;;;;;;28.73;22.02;;;;;;;-0.85;100.00;93880.13;2066112;28;20122;-81
2022/03/20 04:24:23;;;;;;;31.90;23.30;;;;;;;-0.86;100.00;93893.59;2077071;28;20026;-81
2022/03/20 04:25:24;;;;;;;35.25;23.98;;;;;;;-0.84;100.00;93889.53;2089501;28;20413;-81
2022/03/20 04:26:25;;;;;;;34.95;24.35;;;;;;;-0.87;100.00;93890.19;2074513;28;20030;-81
2022/03/20 04:27:28;;;;;;;37.15;25.33;;;;;;;-0.84;100.00;93891.41;2069289;28;20049;-81
2022/03/20 04:28:29;;;;;;;35.47;24.45;;;;;;;-0.83;100.00;93885.84;2089719;28;20033;-81
2022/03/20 04:29:31;;;;;;;36.33;24.60;;;;;;;-0.75;100.00;93886.81;2079338;28;20040;-81
2022/03/20 04:30:34;;;;;;;32.17;23.75;;;;;;;-0.70;100.00;93891.09;2065652;28;20024;-81
2022/03/20 04:31:35;;;;;;;34.58;24.63;;;;;;;-0.73;100.00;93892.53;2073574;28;20464;-82
2022/03/20 04:32:36;;;;;;;33.00;23.92;;;;;;;-0.73;100.00;93895.16;2077402;28;20041;-81
2022/03/20 04:33:37;;;;;;;35.13;24.83;;;;;;;-0.68;100.00;93889.69;2073127;28;20442;-81
2022/03/20 04:34:38;;;;;;;37.78;23.63;;;;;;;-0.66;100.00;93889.34;2072735;28;20029;-81
2022/03/20 04:35:39;;;;;;;34.28;23.38;;;;;;;-0.69;100.00;93893.41;2063786;28;20077;-81
2022/03/20 04:36:42;;;;;;;33.33;23.13;;;;;;;-0.72;100.00;93888.81;2072111;28;20061;-81
2022/03/20 04:37:44;;;;;;;37.88;26.63;;;;;;;-0.65;100.00;93890.91;2064442;28;20026;-81
2022/03/20 04:38:45;;;;;;;33.55;23.95;;;;;;;-0.65;100.00;93894.31;2057360;28;20043;-81
2022/03/20 04:39:46;;;;;;;32.13;23.92;;;;;;;-0.69;100.00;93890.03;2068095;28;20328;-81
2022/03/20 04:40:48;;;;;;;34.67;24.50;;;;;;;-0.70;100.00;93885.84;2075233;28;20022;-80
2022/03/20 04:41:49;;;;;;;33.80;23.98;;;;;;;-0.68;100.00;93888.94;2072298;28;20030;-80
2022/03/20 04:42:50;;;;;;;35.45;25.05;;;;;;;-0.72;100.00;93901.16;2059897;28;20031;-80
2022/03/20 04:43:52;;;;;;;34.05;23.92;;;;;;;-0.68;100.00;93894.94;2065115;28;20047;-81
2022/03/20 04:44:53;;;;;;;30.08;22.63;;;;;;;-0.67;100.00;93900.97;2067065;28;20042;-81
2022/03/20 04:45:54;;;;;;;30.77;23.33;;;;;;;-0.70;100.00;93899.75;2065129;28;20034;-81
2022/03/20 04:46:55;;;;;;;32.05;23.30;;;;;;;-0.62;100.00;93901.50;2079152;28;20029;-81
2022/03/20 04:58:35;;;;;;;36.72;23.45;;;;;;;-0.66;100.00;93902.47;2074058;28;20017;-81
2022/03/20 04:59:36;;;;;;;39.40;24.23;;;;;;;-0.63;100.00;93907.09;2078493;28;20167;-80
2022/03/20 05:00:37;;;;;;;33.92;23.77;;;;;;;-0.73;100.00;93903.03;2072452;28;20430;-80
2022/03/20 05:01:38;;;;;;;38.08;24.73;;;;;;;-0.78;100.00;93908.50;2072542;28;20021;-81
2022/03/20 05:02:39;;;;;;;38.13;24.80;;;;;;;-0.71;100.00;93906.09;2067639;28;20073;-81
2022/03/20 05:03:40;;;;;;;37.35;24.75;;;;;;;-0.70;100.00;93918.13;2065248;28;20030;-80
2022/03/20 05:04:42;;;;;;;35.92;24.77;;;;;;;-0.74;100.00;93913.88;2077290;28;20052;-80